createdAt,value
2023-05-05T00:00:59.625Z,99.90
2023-05-05T00:03:27.824Z,99.90
2023-05-05T00:05:57.458Z,99.90
2023-05-05T00:08:25.374Z,99.90
2023-05-05T00:10:53.787Z,99.90
2023-05-05T00:13:22.118Z,99.90
2023-05-05T00:15:50.942Z,99.90
2023-05-05T00:18:18.998Z,99.90
2023-05-05T00:20:47.452Z,99.90
2023-05-05T00:23:17.003Z,99.90
2023-05-05T00:25:44.901Z,99.90
2023-05-05T00:28:14.080Z,99.90
2023-05-05T00:30:42.076Z,99.90
2023-05-05T00:33:09.890Z,99.90
2023-05-05T00:35:37.778Z,99.90
2023-05-05T00:38:05.674Z,99.90
2023-05-05T00:40:34.917Z,99.90
2023-05-05T00:43:02.902Z,99.90
2023-05-05T00:45:31.683Z,99.90
2023-05-05T00:48:00.634Z,99.90
2023-05-05T00:50:30.158Z,99.90
2023-05-05T00:53:00.055Z,99.90
2023-05-05T00:55:28.060Z,99.90
2023-05-05T00:57:57.346Z,99.90
2023-05-05T01:00:25.498Z,99.90
2023-05-05T01:02:53.458Z,99.90
2023-05-05T01:05:21.457Z,99.90
2023-05-05T01:08:03.689Z,99.90
2023-05-05T01:10:36.588Z,99.90
2023-05-05T01:13:13.508Z,99.90
2023-05-05T01:15:43.818Z,99.90
2023-05-05T01:18:15.271Z,99.90
2023-05-05T01:20:46.161Z,99.90
2023-05-05T01:23:17.080Z,99.90
2023-05-05T01:26:04.057Z,99.90
2023-05-05T01:29:00.488Z,99.90
2023-05-05T01:31:51.566Z,99.90
2023-05-05T01:34:22.121Z,99.90
2023-05-05T01:36:53.142Z,99.90
2023-05-05T01:39:21.162Z,99.90
2023-05-05T01:41:50.195Z,99.90
2023-05-05T01:44:18.808Z,99.90
2023-05-05T01:46:48.352Z,99.90
2023-05-05T01:49:16.202Z,99.90
2023-05-05T01:51:44.061Z,99.90
2023-05-05T01:54:11.973Z,99.90
2023-05-05T01:56:41.013Z,99.90
2023-05-05T01:59:08.894Z,99.90
2023-05-05T02:01:37.459Z,99.90
2023-05-05T02:04:09.130Z,99.90
2023-05-05T02:06:37.068Z,99.90
2023-05-05T02:09:05.056Z,99.90
2023-05-05T02:11:32.937Z,99.90
2023-05-05T02:14:01.321Z,99.90
2023-05-05T02:16:31.166Z,99.90
2023-05-05T02:18:59.580Z,99.90
2023-05-05T02:21:28.851Z,99.90
2023-05-05T02:23:56.789Z,99.90
2023-05-05T02:26:24.792Z,99.90
2023-05-05T02:28:54.053Z,99.90
2023-05-05T02:31:22.011Z,99.90
2023-05-05T02:33:49.908Z,99.90
2023-05-05T02:36:19.199Z,99.90
2023-05-05T02:38:49.583Z,99.90
2023-05-05T02:41:19.461Z,99.90
2023-05-05T02:43:47.360Z,99.90
2023-05-05T02:46:15.280Z,99.90
2023-05-05T02:48:43.177Z,99.90
2023-05-05T02:51:11.003Z,99.90
2023-05-05T02:53:38.822Z,99.90
2023-05-05T02:56:12.180Z,99.90
2023-05-05T02:58:43.824Z,99.90
2023-05-05T03:01:16.123Z,99.90
2023-05-05T03:03:47.766Z,99.90
2023-05-05T03:06:17.287Z,99.90
2023-05-05T03:08:49.119Z,99.90
2023-05-05T03:11:24.000Z,99.90
2023-05-05T03:13:52.373Z,99.90
2023-05-05T03:16:20.268Z,99.90
2023-05-05T03:18:48.120Z,99.90
2023-05-05T03:21:16.020Z,99.90
2023-05-05T03:23:43.942Z,99.90
2023-05-05T03:26:11.838Z,99.90
2023-05-05T03:28:41.163Z,99.90
2023-05-05T03:31:08.987Z,99.90
2023-05-05T03:33:36.929Z,99.90
2023-05-05T03:36:05.133Z,99.90
2023-05-05T03:38:32.981Z,99.90
2023-05-05T03:41:02.403Z,99.90
2023-05-05T03:43:30.345Z,99.90
2023-05-05T03:45:59.583Z,99.90
2023-05-05T03:48:27.592Z,99.90
2023-05-05T03:50:55.452Z,99.90
2023-05-05T03:53:23.333Z,99.90
2023-05-05T03:55:51.888Z,99.90
2023-05-05T03:58:19.775Z,99.90
2023-05-05T04:00:47.616Z,99.90
2023-05-05T04:03:17.294Z,99.90
2023-05-05T04:05:45.226Z,99.90
2023-05-05T04:08:13.058Z,99.90
2023-05-05T04:10:40.993Z,99.90
2023-05-05T04:13:09.445Z,99.90
2023-05-05T04:15:37.463Z,99.90
2023-05-05T04:18:05.542Z,99.90
2023-05-05T04:20:35.958Z,99.90
2023-05-05T04:23:03.871Z,99.90
2023-05-05T04:25:31.724Z,99.90
2023-05-05T04:27:59.590Z,99.90
2023-05-05T04:30:27.482Z,99.90
2023-05-05T04:32:55.404Z,99.90
2023-05-05T04:35:23.557Z,99.90
2023-05-05T04:37:54.482Z,99.90
2023-05-05T04:40:22.457Z,99.90
2023-05-05T04:42:50.342Z,99.90
2023-05-05T04:45:18.300Z,99.90
2023-05-05T04:47:46.498Z,99.90
2023-05-05T04:50:14.658Z,99.90
2023-05-05T04:52:42.565Z,99.90
2023-05-05T04:55:12.522Z,99.90
2023-05-05T04:57:40.440Z,99.90
2023-05-05T05:00:09.756Z,99.90
2023-05-05T05:02:38.532Z,99.90
2023-05-05T05:05:07.289Z,99.90
2023-05-05T05:07:35.127Z,99.90
2023-05-05T05:10:02.988Z,99.90
2023-05-05T05:12:32.213Z,99.90
2023-05-05T05:15:00.040Z,99.90
2023-05-05T05:17:29.941Z,99.90
2023-05-05T05:20:01.245Z,99.90
2023-05-05T05:22:29.149Z,99.90
2023-05-05T05:24:57.024Z,99.90
2023-05-05T05:27:24.929Z,99.90
2023-05-05T05:29:54.160Z,99.90
2023-05-05T05:32:22.422Z,99.90
2023-05-05T05:34:50.274Z,99.90
2023-05-05T05:37:18.127Z,99.90
2023-05-05T05:39:51.808Z,99.90
2023-05-05T05:42:19.714Z,99.90
2023-05-05T05:44:47.560Z,99.90
2023-05-05T05:47:16.782Z,99.90
2023-05-05T05:49:44.650Z,99.90
2023-05-05T05:52:12.552Z,99.90
2023-05-05T05:54:40.430Z,99.90
2023-05-05T05:57:08.328Z,99.90
2023-05-05T05:59:36.214Z,99.90
2023-05-05T06:02:04.505Z,99.90
2023-05-05T06:04:33.807Z,99.90
2023-05-05T06:07:01.661Z,99.90
2023-05-05T06:09:29.526Z,99.90
2023-05-05T06:11:57.288Z,99.90
2023-05-05T06:14:25.170Z,99.90
2023-05-05T06:16:52.976Z,99.90
2023-05-05T06:19:21.392Z,99.90
2023-05-05T06:21:50.920Z,99.90
2023-05-05T06:24:18.722Z,99.90
2023-05-05T06:26:46.501Z,99.90
2023-05-05T06:29:14.297Z,99.90
2023-05-05T06:31:42.124Z,99.90
2023-05-05T06:34:09.966Z,99.90
2023-05-05T06:36:37.841Z,99.90
2023-05-05T06:39:07.302Z,99.90
2023-05-05T06:41:35.090Z,99.90
2023-05-05T06:44:03.317Z,99.90
2023-05-05T06:46:31.089Z,99.90
2023-05-05T06:48:58.943Z,99.90
2023-05-05T06:51:27.634Z,99.90
2023-05-05T06:53:55.378Z,99.90
2023-05-05T06:56:24.511Z,99.90
2023-05-05T06:58:52.373Z,99.90
2023-05-05T07:01:20.423Z,99.90
2023-05-05T07:03:48.403Z,99.90
2023-05-05T07:06:16.375Z,99.90
2023-05-05T07:08:44.224Z,99.90
2023-05-05T07:11:12.027Z,99.90
2023-05-05T07:13:41.253Z,99.90
2023-05-05T07:16:09.279Z,99.90
2023-05-05T07:18:37.099Z,99.90
2023-05-05T07:21:06.453Z,99.90
2023-05-05T07:23:34.493Z,99.90
2023-05-05T07:26:02.383Z,99.90
2023-05-05T07:28:30.205Z,99.90
2023-05-05T07:30:59.409Z,99.90
2023-05-05T07:33:27.669Z,99.90
2023-05-05T07:35:55.609Z,99.90
2023-05-05T07:38:25.236Z,99.90
2023-05-05T07:40:53.117Z,99.90
2023-05-05T07:43:21.030Z,99.90
2023-05-05T07:45:48.974Z,99.90
2023-05-05T07:48:18.256Z,99.90
2023-05-05T07:50:46.184Z,99.90
2023-05-05T07:53:15.142Z,99.90
2023-05-05T07:55:43.253Z,99.90
2023-05-05T07:58:11.850Z,99.90
2023-05-05T08:00:39.809Z,99.90
2023-05-05T08:03:10.717Z,99.90
2023-05-05T08:05:41.014Z,99.90
2023-05-05T08:08:08.840Z,99.90
2023-05-05T08:10:36.654Z,99.90
2023-05-05T08:13:04.515Z,99.90
2023-05-05T08:15:32.413Z,99.90
2023-05-05T08:18:00.575Z,99.90
2023-05-05T08:20:29.358Z,99.90
2023-05-05T08:22:58.588Z,99.90
2023-05-05T08:25:26.941Z,99.90
2023-05-05T08:27:54.894Z,99.90
2023-05-05T08:30:22.737Z,99.90
2023-05-05T08:32:50.887Z,99.90
2023-05-05T08:35:18.799Z,99.90
2023-05-05T08:37:46.691Z,99.90
2023-05-05T08:40:16.040Z,99.90
2023-05-05T08:42:45.535Z,99.90
2023-05-05T08:45:13.503Z,99.90
2023-05-05T08:47:43.279Z,97.10
2023-05-05T08:50:12.174Z,99.90
2023-05-05T08:52:41.185Z,99.90
2023-05-05T08:55:16.262Z,97.80
2023-05-05T08:57:47.150Z,76.00
2023-05-05T09:00:15.863Z,84.30
2023-05-05T09:02:43.991Z,99.90
2023-05-05T09:05:11.923Z,99.90
2023-05-05T09:07:41.240Z,99.90
2023-05-05T09:10:10.375Z,99.90
2023-05-05T09:12:41.289Z,98.10
2023-05-05T09:15:10.323Z,97.10
2023-05-05T09:17:38.823Z,99.90
2023-05-05T09:20:08.157Z,99.90
2023-05-05T09:22:37.546Z,99.90
2023-05-05T09:25:06.264Z,92.20
2023-05-05T09:27:37.025Z,98.50
2023-05-05T09:30:08.922Z,94.60
2023-05-05T09:32:46.736Z,96.00
2023-05-05T09:35:14.641Z,75.30
2023-05-05T09:37:42.657Z,60.30
2023-05-05T09:40:11.465Z,55.60
2023-05-05T09:42:39.546Z,90.00
2023-05-05T09:45:25.981Z,55.50
2023-05-05T09:47:59.169Z,48.70
2023-05-05T09:50:30.525Z,70.50
2023-05-05T09:52:59.470Z,51.00
2023-05-05T09:55:27.359Z,71.10
2023-05-05T09:57:55.337Z,51.10
2023-05-05T10:00:29.857Z,95.20
2023-05-05T10:02:58.250Z,67.10
2023-05-05T10:05:26.201Z,77.60
2023-05-05T10:07:54.056Z,71.20
2023-05-05T10:10:21.919Z,91.90
2023-05-05T10:12:49.817Z,52.20
2023-05-05T10:15:17.792Z,62.90
2023-05-05T10:18:05.390Z,78.00
2023-05-05T10:20:35.112Z,50.70
2023-05-05T10:23:03.150Z,99.90
2023-05-05T10:25:31.767Z,93.30
2023-05-05T10:28:01.290Z,99.90
2023-05-05T10:30:31.334Z,90.00
2023-05-05T10:33:29.594Z,99.90
2023-05-05T10:35:55.506Z,99.90
2023-05-05T10:38:24.842Z,99.90
2023-05-05T10:40:54.518Z,99.90
2023-05-05T10:43:22.331Z,99.90
2023-05-05T10:45:50.315Z,91.30
2023-05-05T10:48:22.498Z,95.40
2023-05-05T10:50:51.873Z,90.30
2023-05-05T10:53:23.015Z,99.70
2023-05-05T10:55:53.549Z,59.40
2023-05-05T10:58:43.685Z,48.40
2023-05-05T11:01:15.458Z,41.10
2023-05-05T11:03:44.744Z,91.60
2023-05-05T11:06:13.640Z,74.20
2023-05-05T11:08:42.749Z,99.90
2023-05-05T11:11:11.368Z,74.50
2023-05-05T11:13:39.683Z,99.90
2023-05-05T11:16:27.661Z,91.50
2023-05-05T11:18:56.952Z,99.90
2023-05-05T11:21:24.765Z,99.90
2023-05-05T11:23:52.911Z,81.00
2023-05-05T11:26:51.487Z,81.00
2023-05-05T11:29:19.321Z,82.30
2023-05-05T11:31:48.744Z,41.30
2023-05-05T11:34:28.939Z,38.90
2023-05-05T11:36:58.581Z,43.90
2023-05-05T11:39:36.092Z,82.50
2023-05-05T11:42:17.993Z,97.10
2023-05-05T11:44:46.161Z,60.90
2023-05-05T11:47:30.540Z,41.00
2023-05-05T11:49:58.406Z,54.60
2023-05-05T11:52:27.513Z,99.90
2023-05-05T11:54:58.743Z,26.30
2023-05-05T11:57:30.053Z,19.90
2023-05-05T11:59:59.567Z,36.80
2023-05-05T12:02:29.500Z,35.50
2023-05-05T12:04:57.952Z,99.90
2023-05-05T12:07:27.049Z,52.40
2023-05-05T12:09:55.077Z,45.60
2023-05-05T12:12:23.075Z,17.80
2023-05-05T12:14:53.039Z,33.70
2023-05-05T12:17:21.568Z,35.10
2023-05-05T12:19:49.896Z,31.20
2023-05-05T12:22:22.419Z,31.00
2023-05-05T12:24:57.178Z,24.00
2023-05-05T12:27:25.334Z,31.70
2023-05-05T12:29:55.339Z,38.80
2023-05-05T12:32:24.119Z,36.90
2023-05-05T12:34:54.324Z,48.30
2023-05-05T12:37:22.185Z,35.90
2023-05-05T12:39:50.465Z,38.90
2023-05-05T12:42:18.384Z,23.50
2023-05-05T12:44:46.784Z,38.00
2023-05-05T12:47:16.192Z,68.80
2023-05-05T12:49:48.327Z,43.70
2023-05-05T12:52:16.337Z,51.30
2023-05-05T12:54:57.515Z,48.00
2023-05-05T12:57:25.554Z,45.30
2023-05-05T12:59:53.809Z,56.70
2023-05-05T13:02:23.174Z,63.40
2023-05-05T13:04:52.148Z,33.40
2023-05-05T13:07:20.788Z,88.50
2023-05-05T13:09:49.232Z,25.30
2023-05-05T13:12:18.274Z,29.80
2023-05-05T13:14:46.532Z,28.80
2023-05-05T13:17:14.609Z,56.60
2023-05-05T13:19:46.230Z,88.20
2023-05-05T13:22:14.549Z,49.00
2023-05-05T13:24:51.706Z,40.50
2023-05-05T13:27:20.469Z,27.60
2023-05-05T13:29:48.453Z,38.10
2023-05-05T13:32:16.299Z,16.70
2023-05-05T13:34:45.512Z,19.30
2023-05-05T13:37:13.320Z,45.60
2023-05-05T13:39:41.173Z,18.20
2023-05-05T13:42:08.999Z,39.20
2023-05-05T13:44:36.842Z,9.90
2023-05-05T13:47:04.945Z,12.10
2023-05-05T13:49:32.763Z,14.70
2023-05-05T13:52:02.130Z,20.70
2023-05-05T13:54:29.986Z,20.30
2023-05-05T13:56:57.963Z,24.60
2023-05-05T13:59:27.308Z,18.60
2023-05-05T14:01:55.117Z,23.90
2023-05-05T14:04:23.067Z,48.90
2023-05-05T14:06:51.024Z,22.20
2023-05-05T14:09:20.540Z,18.00
2023-05-05T14:11:48.368Z,46.80
2023-05-05T14:14:16.302Z,26.80
2023-05-05T14:16:44.193Z,77.30
2023-05-05T14:19:12.077Z,19.30
2023-05-05T14:21:39.895Z,23.80
2023-05-05T14:24:08.337Z,28.60
2023-05-05T14:26:37.513Z,29.10
2023-05-05T14:29:05.370Z,22.70
2023-05-05T14:31:33.254Z,26.30
2023-05-05T14:34:01.171Z,27.10
2023-05-05T14:36:29.027Z,30.30
2023-05-05T14:38:56.848Z,37.70
2023-05-05T14:41:24.765Z,22.60
2023-05-05T14:43:54.033Z,23.30
2023-05-05T14:46:21.944Z,22.30
2023-05-05T14:48:49.747Z,33.90
2023-05-05T14:51:17.583Z,34.90
2023-05-05T14:53:45.550Z,31.20
2023-05-05T14:56:13.619Z,26.40
2023-05-05T14:58:41.486Z,60.70
2023-05-05T15:01:10.840Z,43.90
2023-05-05T15:03:38.784Z,63.50
2023-05-05T15:06:06.801Z,57.80
2023-05-05T15:08:34.687Z,47.10
2023-05-05T15:11:02.564Z,31.10
2023-05-05T15:13:31.220Z,37.50
2023-05-05T15:15:59.109Z,32.90
2023-05-05T15:18:28.363Z,53.20
2023-05-05T15:20:56.186Z,42.70
2023-05-05T15:23:23.983Z,46.30
2023-05-05T15:25:51.791Z,99.90
2023-05-05T15:28:19.600Z,78.70
2023-05-05T15:30:47.380Z,57.80
2023-05-05T15:33:15.158Z,93.70
2023-05-05T15:35:44.312Z,72.70
2023-05-05T15:38:12.120Z,81.60
2023-05-05T15:40:39.914Z,99.90
2023-05-05T15:43:08.036Z,99.90
2023-05-05T15:45:36.163Z,99.90
2023-05-05T15:48:04.046Z,96.70
2023-05-05T15:50:31.959Z,98.30
2023-05-05T15:53:01.161Z,88.20
2023-05-05T15:55:29.162Z,98.70
2023-05-05T15:57:57.002Z,98.20
2023-05-05T16:00:25.643Z,99.90
2023-05-05T16:02:53.579Z,99.90
2023-05-05T16:05:23.083Z,99.90
2023-05-05T16:07:52.463Z,99.90
2023-05-05T16:10:21.998Z,99.90
2023-05-05T16:12:49.994Z,99.90
2023-05-05T16:15:17.846Z,99.90
2023-05-05T16:17:45.703Z,99.90
2023-05-05T16:20:14.000Z,99.90
2023-05-05T16:22:41.797Z,99.90
2023-05-05T16:25:10.426Z,99.90
2023-05-05T16:27:39.778Z,99.90
2023-05-05T16:30:10.180Z,99.90
2023-05-05T16:32:38.111Z,99.90
2023-05-05T16:35:07.716Z,99.90
2023-05-05T16:37:35.803Z,99.90
2023-05-05T16:40:05.424Z,99.90
2023-05-05T16:42:33.322Z,99.90
2023-05-05T16:45:02.629Z,99.90
2023-05-05T16:47:30.573Z,99.90
2023-05-05T16:49:58.552Z,99.90
2023-05-05T16:52:26.382Z,99.90
2023-05-05T16:54:55.579Z,99.90
2023-05-05T16:57:23.706Z,99.90
2023-05-05T16:59:51.584Z,99.90
2023-05-05T17:02:20.820Z,99.90
2023-05-05T17:04:48.674Z,99.90
2023-05-05T17:07:16.469Z,99.90
2023-05-05T17:09:44.609Z,99.90
2023-05-05T17:12:12.419Z,99.90
2023-05-05T17:14:40.289Z,99.90
2023-05-05T17:17:08.356Z,99.90
2023-05-05T17:19:37.499Z,99.90
2023-05-05T17:22:05.321Z,99.90
2023-05-05T17:24:33.109Z,99.90
2023-05-05T17:27:00.915Z,99.90
2023-05-05T17:29:28.657Z,99.90
2023-05-05T17:31:56.547Z,99.90
2023-05-05T17:34:24.356Z,99.90
2023-05-05T17:36:53.477Z,99.90
2023-05-05T17:39:21.329Z,99.90
2023-05-05T17:41:49.157Z,99.90
2023-05-05T17:44:16.984Z,99.90
2023-05-05T17:46:44.775Z,99.90
2023-05-05T17:49:12.593Z,99.90
2023-05-05T17:51:40.407Z,99.90
2023-05-05T17:54:09.632Z,99.90
2023-05-05T17:56:38.025Z,99.90
2023-05-05T17:59:05.849Z,99.90
2023-05-05T18:01:33.673Z,99.90
2023-05-05T18:04:01.475Z,99.90
2023-05-05T18:06:29.355Z,99.90
2023-05-05T18:08:57.418Z,99.90
2023-05-05T18:11:28.799Z,99.90
2023-05-05T18:13:56.731Z,99.90
2023-05-05T18:16:24.679Z,99.90
2023-05-05T18:18:52.649Z,99.90
2023-05-05T18:21:20.550Z,99.90
2023-05-05T18:23:48.475Z,99.90
2023-05-05T18:26:16.352Z,99.90
2023-05-05T18:28:45.477Z,99.90
2023-05-05T18:31:13.387Z,99.90
2023-05-05T18:33:41.261Z,99.90
2023-05-05T18:36:09.324Z,99.90
2023-05-05T18:38:37.103Z,99.90
2023-05-05T18:41:05.082Z,99.90
2023-05-05T18:43:32.914Z,99.90
2023-05-05T18:46:02.233Z,99.90
2023-05-05T18:48:30.564Z,99.90
2023-05-05T18:51:01.921Z,99.90
2023-05-05T18:53:30.178Z,99.90
2023-05-05T18:55:58.340Z,99.90
2023-05-05T18:58:26.211Z,99.90
2023-05-05T19:00:54.191Z,99.90
2023-05-05T19:03:23.508Z,99.90
2023-05-05T19:05:51.288Z,99.90
2023-05-05T19:08:19.495Z,99.90
2023-05-05T19:10:47.301Z,99.90
2023-05-05T19:13:15.392Z,99.90
2023-05-05T19:15:43.226Z,99.90
2023-05-05T19:18:11.489Z,99.90
2023-05-05T19:20:42.827Z,99.90
2023-05-05T19:23:11.238Z,99.90
2023-05-05T19:25:39.816Z,99.90
2023-05-05T19:28:07.632Z,99.90
2023-05-05T19:30:36.007Z,99.90
2023-05-05T19:33:03.894Z,99.90
2023-05-05T19:35:31.686Z,99.90
2023-05-05T19:38:00.930Z,99.90
2023-05-05T19:40:28.727Z,99.90
2023-05-05T19:42:56.537Z,99.90
2023-05-05T19:45:24.300Z,99.90
2023-05-05T19:47:52.500Z,99.90
2023-05-05T19:50:20.612Z,99.90
2023-05-05T19:52:48.540Z,99.90
2023-05-05T19:55:17.676Z,99.90
2023-05-05T19:57:45.486Z,99.90
2023-05-05T20:00:14.174Z,99.90
2023-05-05T20:02:42.314Z,99.90
2023-05-05T20:05:13.763Z,99.90
2023-05-05T20:07:42.826Z,99.90
2023-05-05T20:10:13.147Z,99.90
2023-05-05T20:12:47.883Z,99.90
2023-05-05T20:15:18.797Z,99.90
2023-05-05T20:17:47.306Z,99.90
2023-05-05T20:20:18.520Z,99.90
2023-05-05T20:22:46.348Z,99.90
2023-05-05T20:25:15.102Z,99.90
2023-05-05T20:27:44.242Z,99.90
2023-05-05T20:30:12.985Z,99.90
2023-05-05T20:32:41.903Z,99.90
2023-05-05T20:35:10.585Z,99.90
2023-05-05T20:37:38.345Z,99.90
2023-05-05T20:40:06.973Z,99.90
2023-05-05T20:42:35.276Z,99.90
2023-05-05T20:45:04.977Z,99.90
2023-05-05T20:47:34.227Z,99.90
2023-05-05T20:50:02.042Z,99.90
2023-05-05T20:52:29.917Z,99.90
2023-05-05T20:54:57.684Z,99.90
2023-05-05T20:57:25.972Z,99.90
2023-05-05T20:59:53.758Z,99.90
2023-05-05T21:02:22.928Z,99.90
2023-05-05T21:04:50.802Z,99.90
2023-05-05T21:07:18.620Z,99.90
2023-05-05T21:09:47.948Z,99.90
2023-05-05T21:12:15.733Z,99.90
2023-05-05T21:14:44.430Z,99.90
2023-05-05T21:17:12.309Z,99.90
2023-05-05T21:19:41.446Z,99.90
2023-05-05T21:22:09.238Z,99.90
2023-05-05T21:24:39.083Z,99.90
2023-05-05T21:27:06.861Z,99.90
2023-05-05T21:29:37.725Z,99.90
2023-05-05T21:32:05.549Z,99.90
2023-05-05T21:34:33.354Z,99.90
2023-05-05T21:37:02.468Z,99.90
2023-05-05T21:39:30.873Z,99.90
2023-05-05T21:41:58.692Z,99.90
2023-05-05T21:44:26.744Z,99.90
2023-05-05T21:46:54.539Z,99.90
2023-05-05T21:49:22.419Z,99.90
2023-05-05T21:51:50.628Z,99.90
2023-05-05T21:54:19.769Z,99.90
2023-05-05T21:56:47.551Z,99.90
2023-05-05T21:59:17.105Z,99.90
2023-05-05T22:01:45.281Z,99.90
2023-05-05T22:04:13.062Z,99.90
2023-05-05T22:06:40.840Z,99.90
2023-05-05T22:09:08.602Z,99.90
2023-05-05T22:11:37.727Z,99.90
2023-05-05T22:14:05.619Z,99.90
2023-05-05T22:16:33.420Z,99.90
2023-05-05T22:19:01.566Z,99.90
2023-05-05T22:21:29.362Z,99.90
2023-05-05T22:23:57.223Z,99.90
2023-05-05T22:26:25.000Z,99.90
2023-05-05T22:28:54.019Z,99.90
2023-05-05T22:31:21.778Z,99.90
2023-05-05T22:33:49.584Z,99.90
2023-05-05T22:36:17.307Z,99.90
2023-05-05T22:38:45.026Z,99.90
2023-05-05T22:41:12.758Z,99.90
2023-05-05T22:43:40.627Z,99.90
2023-05-05T22:46:09.885Z,99.90
2023-05-05T22:48:37.661Z,99.90
2023-05-05T22:51:05.524Z,99.90
2023-05-05T22:53:33.326Z,99.90
2023-05-05T22:56:01.114Z,99.90
2023-05-05T22:58:29.162Z,99.90
2023-05-05T23:00:56.963Z,99.90
2023-05-05T23:03:26.244Z,99.90
2023-05-05T23:05:54.019Z,99.90
2023-05-05T23:08:23.905Z,99.90
2023-05-05T23:10:51.679Z,99.90
2023-05-05T23:13:19.513Z,99.90
2023-05-05T23:15:47.398Z,99.90
2023-05-05T23:18:15.187Z,99.90
2023-05-05T23:20:44.309Z,99.90
2023-05-05T23:23:12.093Z,99.90
2023-05-05T23:25:39.858Z,99.90
2023-05-05T23:28:07.667Z,99.90
2023-05-05T23:30:35.471Z,99.90
2023-05-05T23:33:04.233Z,99.90
2023-05-05T23:35:32.162Z,99.90
2023-05-05T23:38:01.373Z,99.90
2023-05-05T23:40:29.195Z,99.90
2023-05-05T23:42:57.028Z,99.90
2023-05-05T23:45:24.863Z,99.90
2023-05-05T23:47:52.746Z,99.90
2023-05-05T23:50:20.765Z,99.90
2023-05-05T23:52:48.562Z,99.90
2023-05-05T23:55:17.746Z,99.90
2023-05-05T23:57:45.556Z,99.90
